sensor_id;sensor_type;location;lat;lon;timestamp;pressure;altitude;pressure_sealevel;temperature;humidity
14295;BME280;7231;59.370;18.016;2023-02-11T00:01:32;99932.94;;;1.49;97.98
14295;BME280;7231;59.370;18.016;2023-02-11T00:04:02;99916.53;;;1.48;98.12
14295;BME280;7231;59.370;18.016;2023-02-11T00:06:33;99874.97;;;1.26;98.16
14295;BME280;7231;59.370;18.016;2023-02-11T00:09:02;99917.59;;;1.52;97.98
14295;BME280;7231;59.370;18.016;2023-02-11T00:11:32;99889.38;;;1.39;98.90
14295;BME280;7231;59.370;18.016;2023-02-11T00:14:03;99895.72;;;1.45;98.16
14295;BME280;7231;59.370;18.016;2023-02-11T00:16:33;99908.06;;;1.51;98.34
14295;BME280;7231;59.370;18.016;2023-02-11T00:19:02;99903.72;;;1.50;98.45
14295;BME280;7231;59.370;18.016;2023-02-11T00:21:32;99901.28;;;1.53;98.67
14295;BME280;7231;59.370;18.016;2023-02-11T00:24:00;99903.94;;;1.54;98.84
14295;BME280;7231;59.370;18.016;2023-02-11T00:26:30;99893.59;;;1.54;99.26
14295;BME280;7231;59.370;18.016;2023-02-11T00:28:59;99890.13;;;1.54;98.72
14295;BME280;7231;59.370;18.016;2023-02-11T00:31:28;99904.88;;;1.56;99.44
14295;BME280;7231;59.370;18.016;2023-02-11T00:33:56;99885.63;;;1.50;99.44
14295;BME280;7231;59.370;18.016;2023-02-11T00:36:26;99909.97;;;1.55;99.24
14295;BME280;7231;59.370;18.016;2023-02-11T00:38:56;99894.56;;;1.56;99.96
14295;BME280;7231;59.370;18.016;2023-02-11T00:41:25;99890.28;;;1.57;99.56
14295;BME280;7231;59.370;18.016;2023-02-11T00:43:53;99866.00;;;1.53;99.45
14295;BME280;7231;59.370;18.016;2023-02-11T00:46:22;99870.72;;;1.62;100.00
14295;BME280;7231;59.370;18.016;2023-02-11T00:48:50;99876.84;;;1.64;99.59
14295;BME280;7231;59.370;18.016;2023-02-11T00:51:20;99866.28;;;1.59;100.00
14295;BME280;7231;59.370;18.016;2023-02-11T00:53:48;99869.31;;;1.69;100.00
14295;BME280;7231;59.370;18.016;2023-02-11T00:56:16;99878.03;;;1.71;100.00
14295;BME280;7231;59.370;18.016;2023-02-11T00:58:44;99878.84;;;1.70;100.00
14295;BME280;7231;59.370;18.016;2023-02-11T01:01:12;99878.03;;;1.71;100.00
14295;BME280;7231;59.370;18.016;2023-02-11T01:03:42;99872.78;;;1.69;100.00
14295;BME280;7231;59.370;18.016;2023-02-11T01:06:10;99866.88;;;1.72;100.00
14295;BME280;7231;59.370;18.016;2023-02-11T01:08:38;99858.91;;;1.67;100.00
14295;BME280;7231;59.370;18.016;2023-02-11T01:11:11;99862.66;;;1.74;100.00
14295;BME280;7231;59.370;18.016;2023-02-11T01:13:39;99869.53;;;1.73;100.00
14295;BME280;7231;59.370;18.016;2023-02-11T01:16:10;99867.09;;;1.76;100.00
14295;BME280;7231;59.370;18.016;2023-02-11T01:18:38;99853.00;;;1.70;100.00
14295;BME280;7231;59.370;18.016;2023-02-11T01:21:09;99866.34;;;1.79;100.00
14295;BME280;7231;59.370;18.016;2023-02-11T01:23:37;99864.66;;;1.79;100.00
14295;BME280;7231;59.370;18.016;2023-02-11T01:26:05;99862.06;;;1.79;100.00
14295;BME280;7231;59.370;18.016;2023-02-11T01:28:33;99847.50;;;1.81;100.00
14295;BME280;7231;59.370;18.016;2023-02-11T01:31:01;99849.28;;;1.82;100.00
14295;BME280;7231;59.370;18.016;2023-02-11T01:33:30;99848.47;;;1.83;100.00
14295;BME280;7231;59.370;18.016;2023-02-11T01:36:02;99836.28;;;1.81;100.00
14295;BME280;7231;59.370;18.016;2023-02-11T01:38:32;99834.81;;;1.86;100.00
14295;BME280;7231;59.370;18.016;2023-02-11T01:41:02;99829.63;;;1.86;100.00
14295;BME280;7231;59.370;18.016;2023-02-11T01:43:33;99790.56;;;1.60;100.00
14295;BME280;7231;59.370;18.016;2023-02-11T01:46:27;99850.53;;;1.90;100.00
14295;BME280;7231;59.370;18.016;2023-02-11T01:48:59;99865.38;;;1.94;100.00
14295;BME280;7231;59.370;18.016;2023-02-11T01:51:32;99866.25;;;1.95;100.00
14295;BME280;7231;59.370;18.016;2023-02-11T01:54:03;99861.22;;;1.98;100.00
14295;BME280;7231;59.370;18.016;2023-02-11T01:56:51;99853.53;;;2.00;100.00
14295;BME280;7231;59.370;18.016;2023-02-11T01:59:42;99859.72;;;2.03;100.00
14295;BME280;7231;59.370;18.016;2023-02-11T02:02:14;99833.31;;;1.91;100.00
14295;BME280;7231;59.370;18.016;2023-02-11T02:04:50;99858.31;;;2.10;100.00
14295;BME280;7231;59.370;18.016;2023-02-11T02:07:24;99846.34;;;2.12;100.00
14295;BME280;7231;59.370;18.016;2023-02-11T02:09:58;99848.25;;;2.16;100.00
14295;BME280;7231;59.370;18.016;2023-02-11T02:12:27;99855.25;;;2.18;100.00
14295;BME280;7231;59.370;18.016;2023-02-11T02:15:17;99857.84;;;2.18;100.00
14295;BME280;7231;59.370;18.016;2023-02-11T02:17:49;99851.72;;;2.16;100.00
14295;BME280;7231;59.370;18.016;2023-02-11T02:23:38;99850.22;;;2.21;100.00
14295;BME280;7231;59.370;18.016;2023-02-11T02:26:47;99863.28;;;2.24;100.00
14295;BME280;7231;59.370;18.016;2023-02-11T02:32:48;99877.31;;;2.30;100.00
14295;BME280;7231;59.370;18.016;2023-02-11T02:35:28;99724.44;;;1.46;100.00
14295;BME280;7231;59.370;18.016;2023-02-11T02:38:01;99875.81;;;2.35;100.00
14295;BME280;7231;59.370;18.016;2023-02-11T02:40:36;99875.91;;;2.36;100.00
14295;BME280;7231;59.370;18.016;2023-02-11T02:43:08;99889.03;;;2.41;100.00
14295;BME280;7231;59.370;18.016;2023-02-11T02:45:37;99879.50;;;2.40;100.00
14295;BME280;7231;59.370;18.016;2023-02-11T02:48:06;99881.28;;;2.41;100.00
14295;BME280;7231;59.370;18.016;2023-02-11T02:50:35;99885.63;;;2.42;100.00
14295;BME280;7231;59.370;18.016;2023-02-11T02:53:15;99888.28;;;2.43;100.00
14295;BME280;7231;59.370;18.016;2023-02-11T02:55:56;99887.41;;;2.43;100.00
14295;BME280;7231;59.370;18.016;2023-02-11T02:58:59;99887.41;;;2.43;100.00
14295;BME280;7231;59.370;18.016;2023-02-11T03:01:39;99898.69;;;2.45;100.00
14295;BME280;7231;59.370;18.016;2023-02-11T03:04:18;99895.22;;;2.44;100.00
14295;BME280;7231;59.370;18.016;2023-02-11T03:06:51;99871.13;;;2.26;100.00
14295;BME280;7231;59.370;18.016;2023-02-11T03:09:26;99825.16;;;2.01;100.00
14295;BME280;7231;59.370;18.016;2023-02-11T03:11:57;99910.00;;;2.47;100.00
14295;BME280;7231;59.370;18.016;2023-02-11T03:14:28;99910.97;;;2.49;100.00
14295;BME280;7231;59.370;18.016;2023-02-11T03:16:58;99924.84;;;2.51;100.00
14295;BME280;7231;59.370;18.016;2023-02-11T03:19:33;99924.94;;;2.52;100.00
14295;BME280;7231;59.370;18.016;2023-02-11T03:22:07;99923.34;;;2.56;100.00
14295;BME280;7231;59.370;18.016;2023-02-11T03:24:38;99925.13;;;2.57;100.00
14295;BME280;7231;59.370;18.016;2023-02-11T03:27:11;99931.25;;;2.59;100.00
14295;BME280;7231;59.370;18.016;2023-02-11T03:29:46;99934.66;;;2.58;100.00
14295;BME280;7231;59.370;18.016;2023-02-11T03:32:22;99945.84;;;2.57;100.00
14295;BME280;7231;59.370;18.016;2023-02-11T03:34:55;99955.28;;;2.56;100.00
14295;BME280;7231;59.370;18.016;2023-02-11T03:37:28;99914.75;;;2.38;100.00
14295;BME280;7231;59.370;18.016;2023-02-11T03:40:01;99951.53;;;2.50;100.00
14295;BME280;7231;59.370;18.016;2023-02-11T03:42:33;99956.56;;;2.47;100.00
14295;BME280;7231;59.370;18.016;2023-02-11T03:45:05;99914.75;;;2.18;100.00
14295;BME280;7231;59.370;18.016;2023-02-11T03:47:37;99950.09;;;2.37;100.00
14295;BME280;7231;59.370;18.016;2023-02-11T03:50:09;99954.16;;;2.32;100.00
14295;BME280;7231;59.370;18.016;2023-02-11T03:52:39;99962.59;;;2.28;100.00
14295;BME280;7231;59.370;18.016;2023-02-11T03:55:11;99916.03;;;1.91;100.00
14295;BME280;7231;59.370;18.016;2023-02-11T03:57:40;99980.94;;;2.15;100.00
14295;BME280;7231;59.370;18.016;2023-02-11T04:00:09;99984.13;;;2.09;100.00
14295;BME280;7231;59.370;18.016;2023-02-11T04:02:38;99988.13;;;2.03;100.00
14295;BME280;7231;59.370;18.016;2023-02-11T04:05:13;99982.34;;;1.90;100.00
14295;BME280;7231;59.370;18.016;2023-02-11T04:07:41;99994.16;;;1.85;100.00
14295;BME280;7231;59.370;18.016;2023-02-11T04:10:10;99992.25;;;1.81;100.00
14295;BME280;7231;59.370;18.016;2023-02-11T04:12:39;100021.06;;;1.89;100.00
14295;BME280;7231;59.370;18.016;2023-02-11T04:15:07;100024.28;;;1.85;100.00
14295;BME280;7231;59.370;18.016;2023-02-11T04:17:35;99971.59;;;1.47;100.00
14295;BME280;7231;59.370;18.016;2023-02-11T04:20:04;100031.75;;;1.79;100.00
14295;BME280;7231;59.370;18.016;2023-02-11T04:22:33;100032.41;;;1.75;100.00
14295;BME280;7231;59.370;18.016;2023-02-11T04:25:02;100031.78;;;1.62;100.00
14295;BME280;7231;59.370;18.016;2023-02-11T04:27:29;100016.63;;;1.52;100.00
14295;BME280;7231;59.370;18.016;2023-02-11T04:29:57;100043.16;;;1.66;100.00
14295;BME280;7231;59.370;18.016;2023-02-11T04:32:25;100043.75;;;1.60;100.00
14295;BME280;7231;59.370;18.016;2023-02-11T04:34:53;100023.19;;;1.46;100.00
14295;BME280;7231;59.370;18.016;2023-02-11T04:37:21;100045.06;;;1.52;100.00
14295;BME280;7231;59.370;18.016;2023-02-11T04:39:50;100060.53;;;1.52;100.00
14295;BME280;7231;59.370;18.016;2023-02-11T04:42:18;100061.28;;;1.50;100.00
14295;BME280;7231;59.370;18.016;2023-02-11T04:44:46;100076.69;;;1.48;100.00
14295;BME280;7231;59.370;18.016;2023-02-11T04:47:14;100078.31;;;1.46;100.00
14295;BME280;7231;59.370;18.016;2023-02-11T04:49:42;100093.72;;;1.45;100.00
14295;BME280;7231;59.370;18.016;2023-02-11T04:52:10;100099.63;;;1.42;100.00
14295;BME280;7231;59.370;18.016;2023-02-11T04:54:38;100071.88;;;1.22;100.00
14295;BME280;7231;59.370;18.016;2023-02-11T04:57:07;100106.25;;;1.37;100.00
14295;BME280;7231;59.370;18.016;2023-02-11T04:59:35;100113.03;;;1.35;100.00
14295;BME280;7231;59.370;18.016;2023-02-11T05:02:03;100119.81;;;1.33;100.00
14295;BME280;7231;59.370;18.016;2023-02-11T05:04:31;100134.25;;;1.29;100.00
14295;BME280;7231;59.370;18.016;2023-02-11T05:06:59;100123.59;;;1.23;100.00
14295;BME280;7231;59.370;18.016;2023-02-11T05:09:27;100134.81;;;1.24;100.00
14295;BME280;7231;59.370;18.016;2023-02-11T05:11:55;100141.59;;;1.22;100.00
14295;BME280;7231;59.370;18.016;2023-02-11T05:14:24;100147.47;;;1.19;100.00
14295;BME280;7231;59.370;18.016;2023-02-11T05:16:52;100155.06;;;1.16;100.00
14295;BME280;7231;59.370;18.016;2023-02-11T05:19:20;100159.97;;;1.12;100.00
14295;BME280;7231;59.370;18.016;2023-02-11T05:21:48;100162.31;;;1.07;100.00
14295;BME280;7231;59.370;18.016;2023-02-11T05:24:30;100192.78;;;0.98;100.00
14295;BME280;7231;59.370;18.016;2023-02-11T05:26:58;100204.34;;;0.90;100.00
14295;BME280;7231;59.370;18.016;2023-02-11T05:29:28;100204.91;;;0.84;100.00
14295;BME280;7231;59.370;18.016;2023-02-11T05:31:57;100207.69;;;0.73;100.00
14295;BME280;7231;59.370;18.016;2023-02-11T05:34:25;100196.03;;;0.64;100.00
14295;BME280;7231;59.370;18.016;2023-02-11T05:36:53;100217.66;;;0.67;100.00
14295;BME280;7231;59.370;18.016;2023-02-11T05:39:21;100228.59;;;0.62;100.00
14295;BME280;7231;59.370;18.016;2023-02-11T05:41:49;100183.69;;;0.29;100.00
14295;BME280;7231;59.370;18.016;2023-02-11T05:44:17;100231.81;;;0.58;100.00
14295;BME280;7231;59.370;18.016;2023-02-11T05:46:47;100250.47;;;0.54;100.00
14295;BME280;7231;59.370;18.016;2023-02-11T05:49:16;100251.19;;;0.52;100.00
14295;BME280;7231;59.370;18.016;2023-02-11T05:51:44;100263.91;;;0.49;100.00
14295;BME280;7231;59.370;18.016;2023-02-11T05:54:12;100271.66;;;0.49;100.00
14295;BME280;7231;59.370;18.016;2023-02-11T05:56:40;100286.31;;;0.50;100.00
14295;BME280;7231;59.370;18.016;2023-02-11T05:59:12;100293.09;;;0.48;100.00
14295;BME280;7231;59.370;18.016;2023-02-11T06:01:40;100119.22;;;-0.59;100.00
14295;BME280;7231;59.370;18.016;2023-02-11T06:04:10;100305.78;;;0.45;100.00
14295;BME280;7231;59.370;18.016;2023-02-11T06:06:38;100295.72;;;0.35;100.00
14295;BME280;7231;59.370;18.016;2023-02-11T06:09:05;100301.22;;;0.26;100.00
14295;BME280;7231;59.370;18.016;2023-02-11T06:11:33;100326.94;;;0.39;100.00
14295;BME280;7231;59.370;18.016;2023-02-11T06:14:01;100332.81;;;0.37;100.00
14295;BME280;7231;59.370;18.016;2023-02-11T06:16:29;100340.47;;;0.35;100.00
14295;BME280;7231;59.370;18.016;2023-02-11T06:18:58;100367.13;;;0.36;100.00
14295;BME280;7231;59.370;18.016;2023-02-11T06:21:27;100351.91;;;0.25;100.00
14295;BME280;7231;59.370;18.016;2023-02-11T06:24:08;100377.25;;;0.32;99.86
14295;BME280;7231;59.370;18.016;2023-02-11T06:26:36;100393.53;;;0.31;100.00
14295;BME280;7231;59.370;18.016;2023-02-11T06:29:04;100382.13;;;0.28;99.34
14295;BME280;7231;59.370;18.016;2023-02-11T06:31:32;100382.56;;;0.21;99.05
14295;BME280;7231;59.370;18.016;2023-02-11T06:34:00;100383.41;;;0.07;98.45
14295;BME280;7231;59.370;18.016;2023-02-11T06:36:29;100403.91;;;0.05;98.73
14295;BME280;7231;59.370;18.016;2023-02-11T06:38:57;100409.53;;;-0.02;98.25
14295;BME280;7231;59.370;18.016;2023-02-11T06:41:25;100403.97;;;-0.08;97.96
14295;BME280;7231;59.370;18.016;2023-02-11T06:43:53;100417.38;;;-0.14;98.28
14295;BME280;7231;59.370;18.016;2023-02-11T06:46:21;100398.16;;;-0.32;98.06
14295;BME280;7231;59.370;18.016;2023-02-11T06:48:49;100430.56;;;-0.22;98.21
14295;BME280;7231;59.370;18.016;2023-02-11T06:51:17;100411.63;;;-0.36;98.47
14295;BME280;7231;59.370;18.016;2023-02-11T06:53:47;100428.97;;;-0.34;98.38
14295;BME280;7231;59.370;18.016;2023-02-11T06:56:19;100439.47;;;-0.30;98.88
14295;BME280;7231;59.370;18.016;2023-02-11T06:58:51;100456.63;;;-0.31;99.11
14295;BME280;7231;59.370;18.016;2023-02-11T07:01:20;100471.19;;;-0.31;99.14
14295;BME280;7231;59.370;18.016;2023-02-11T07:03:49;100474.56;;;-0.32;99.04
14295;BME280;7231;59.370;18.016;2023-02-11T07:06:19;100485.94;;;-0.29;99.07
14295;BME280;7231;59.370;18.016;2023-02-11T07:08:49;100505.88;;;-0.26;99.12
14295;BME280;7231;59.370;18.016;2023-02-11T07:11:19;100508.34;;;-0.28;99.17
14295;BME280;7231;59.370;18.016;2023-02-11T07:13:50;100521.91;;;-0.30;98.98
14295;BME280;7231;59.370;18.016;2023-02-11T07:16:19;100534.78;;;-0.30;99.31
14295;BME280;7231;59.370;18.016;2023-02-11T07:18:48;100553.03;;;-0.27;99.53
14295;BME280;7231;59.370;18.016;2023-02-11T07:21:18;100553.41;;;-0.35;99.85
14295;BME280;7231;59.370;18.016;2023-02-11T07:23:48;100512.34;;;-0.58;99.55
14295;BME280;7231;59.370;18.016;2023-02-11T07:26:19;100587.03;;;-0.20;99.42
14295;BME280;7231;59.370;18.016;2023-02-11T07:28:49;100580.78;;;-0.23;99.89
14295;BME280;7231;59.370;18.016;2023-02-11T07:31:19;100578.50;;;-0.19;99.73
14295;BME280;7231;59.370;18.016;2023-02-11T07:33:47;100596.06;;;-0.13;99.54
14295;BME280;7231;59.370;18.016;2023-02-11T07:36:15;100606.38;;;-0.13;99.18
14295;BME280;7231;59.370;18.016;2023-02-11T07:38:43;100588.19;;;-0.28;99.55
14295;BME280;7231;59.370;18.016;2023-02-11T07:41:14;100583.72;;;-0.30;99.12
14295;BME280;7231;59.370;18.016;2023-02-11T07:43:43;100582.75;;;-0.32;99.67
14295;BME280;7231;59.370;18.016;2023-02-11T07:46:14;100604.16;;;-0.20;99.73
14295;BME280;7231;59.370;18.016;2023-02-11T07:48:42;100632.84;;;-0.03;99.74
14295;BME280;7231;59.370;18.016;2023-02-11T07:51:12;100648.56;;;0.02;99.47
14295;BME280;7231;59.370;18.016;2023-02-11T07:53:40;100660.81;;;0.18;100.00
14295;BME280;7231;59.370;18.016;2023-02-11T07:56:09;100669.84;;;0.38;100.00
14295;BME280;7231;59.370;18.016;2023-02-11T07:58:40;100683.16;;;0.57;100.00
14295;BME280;7231;59.370;18.016;2023-02-11T08:01:10;100680.47;;;0.55;100.00
14295;BME280;7231;59.370;18.016;2023-02-11T08:03:39;100661.31;;;0.39;100.00
14295;BME280;7231;59.370;18.016;2023-02-11T08:06:10;100714.72;;;0.66;100.00
14295;BME280;7231;59.370;18.016;2023-02-11T08:08:39;100712.03;;;0.64;99.77
14295;BME280;7231;59.370;18.016;2023-02-11T08:11:07;100685.72;;;0.30;98.83
14295;BME280;7231;59.370;18.016;2023-02-11T08:13:36;100731.97;;;0.54;99.05
14295;BME280;7231;59.370;18.016;2023-02-11T08:16:06;100730.78;;;0.49;98.62
14295;BME280;7231;59.370;18.016;2023-02-11T08:18:34;100638.88;;;-0.02;98.92
14295;BME280;7231;59.370;18.016;2023-02-11T08:21:04;100706.84;;;0.38;98.20
14295;BME280;7231;59.370;18.016;2023-02-11T08:23:32;100760.56;;;0.70;98.46
14295;BME280;7231;59.370;18.016;2023-02-11T08:26:01;100787.47;;;0.74;98.68
14295;BME280;7231;59.370;18.016;2023-02-11T08:28:29;100757.16;;;0.58;98.11
14295;BME280;7231;59.370;18.016;2023-02-11T08:31:05;100791.03;;;0.76;97.95
14295;BME280;7231;59.370;18.016;2023-02-11T08:33:34;100745.84;;;0.43;97.45
14295;BME280;7231;59.370;18.016;2023-02-11T08:36:07;100811.97;;;0.80;96.84
14295;BME280;7231;59.370;18.016;2023-02-11T08:38:36;100826.56;;;0.80;96.75
14295;BME280;7231;59.370;18.016;2023-02-11T08:41:04;100840.28;;;0.79;96.92
14295;BME280;7231;59.370;18.016;2023-02-11T08:43:32;100844.91;;;0.71;96.34
14295;BME280;7231;59.370;18.016;2023-02-11T08:46:00;100845.75;;;0.45;95.73
14295;BME280;7231;59.370;18.016;2023-02-11T08:48:29;100849.22;;;0.46;96.24
14295;BME280;7231;59.370;18.016;2023-02-11T08:50:57;100893.81;;;0.56;95.94
14295;BME280;7231;59.370;18.016;2023-02-11T08:53:25;100902.13;;;0.52;95.48
14295;BME280;7231;59.370;18.016;2023-02-11T08:55:54;100919.59;;;0.56;95.84
14295;BME280;7231;59.370;18.016;2023-02-11T08:58:22;100929.13;;;0.57;95.70
14295;BME280;7231;59.370;18.016;2023-02-11T09:00:50;100762.22;;;-0.45;95.36
14295;BME280;7231;59.370;18.016;2023-02-11T09:03:18;100953.03;;;0.55;94.95
14295;BME280;7231;59.370;18.016;2023-02-11T09:05:49;100956.41;;;0.54;94.91
14295;BME280;7231;59.370;18.016;2023-02-11T09:08:19;100958.44;;;0.46;95.01
14295;BME280;7231;59.370;18.016;2023-02-11T09:10:47;100981.41;;;0.55;95.27
14295;BME280;7231;59.370;18.016;2023-02-11T09:13:15;100980.41;;;0.53;95.29
14295;BME280;7231;59.370;18.016;2023-02-11T09:15:44;100926.25;;;0.16;95.03
14295;BME280;7231;59.370;18.016;2023-02-11T09:18:13;101010.44;;;0.64;94.60
14295;BME280;7231;59.370;18.016;2023-02-11T09:20:41;101030.19;;;0.63;94.63
14295;BME280;7231;59.370;18.016;2023-02-11T09:23:10;101036.25;;;0.64;94.58
14295;BME280;7231;59.370;18.016;2023-02-11T09:25:38;101045.44;;;0.60;94.13
14295;BME280;7231;59.370;18.016;2023-02-11T09:28:07;101058.47;;;0.62;94.45
14295;BME280;7231;59.370;18.016;2023-02-11T09:30:35;101074.63;;;0.59;93.98
14295;BME280;7231;59.370;18.016;2023-02-11T09:33:04;101078.88;;;0.59;94.26
14295;BME280;7231;59.370;18.016;2023-02-11T09:35:32;101064.00;;;0.43;94.04
14295;BME280;7231;59.370;18.016;2023-02-11T09:38:00;101093.44;;;0.70;94.00
14295;BME280;7231;59.370;18.016;2023-02-11T09:40:29;101100.28;;;0.70;93.93
14295;BME280;7231;59.370;18.016;2023-02-11T09:43:03;101117.81;;;0.62;93.15
14295;BME280;7231;59.370;18.016;2023-02-11T09:45:34;101133.84;;;0.58;93.03
14295;BME280;7231;59.370;18.016;2023-02-11T09:48:06;101141.47;;;0.56;92.98
14295;BME280;7231;59.370;18.016;2023-02-11T09:50:41;101154.28;;;0.55;92.83
14295;BME280;7231;59.370;18.016;2023-02-11T09:53:15;101162.25;;;0.58;92.49
14295;BME280;7231;59.370;18.016;2023-02-11T09:55:48;101164.59;;;0.55;92.69
14295;BME280;7231;59.370;18.016;2023-02-11T09:58:25;101158.88;;;0.47;92.31
14295;BME280;7231;59.370;18.016;2023-02-11T10:01:02;101184.00;;;0.50;92.46
14295;BME280;7231;59.370;18.016;2023-02-11T10:03:55;101183.00;;;0.48;91.77
14295;BME280;7231;59.370;18.016;2023-02-11T10:06:38;101187.69;;;0.42;91.89
14295;BME280;7231;59.370;18.016;2023-02-11T10:09:27;101175.34;;;0.26;91.70
14295;BME280;7231;59.370;18.016;2023-02-11T10:12:13;101202.28;;;0.41;91.51
14295;BME280;7231;59.370;18.016;2023-02-11T10:15:06;101204.06;;;0.42;92.07
14295;BME280;7231;59.370;18.016;2023-02-11T10:17:39;101192.63;;;0.39;91.88
14295;BME280;7231;59.370;18.016;2023-02-11T10:20:22;101211.25;;;0.46;91.99
14295;BME280;7231;59.370;18.016;2023-02-11T10:22:54;101217.31;;;0.47;91.66
14295;BME280;7231;59.370;18.016;2023-02-11T10:25:23;101231.09;;;0.47;92.03
14295;BME280;7231;59.370;18.016;2023-02-11T10:27:55;101230.09;;;0.45;91.61
14295;BME280;7231;59.370;18.016;2023-02-11T10:30:27;101224.25;;;0.36;91.61
14295;BME280;7231;59.370;18.016;2023-02-11T10:33:01;101235.69;;;0.40;91.15
14295;BME280;7231;59.370;18.016;2023-02-11T10:35:30;101239.16;;;0.28;91.30
14295;BME280;7231;59.370;18.016;2023-02-11T10:37:59;101258.69;;;0.37;91.47
14295;BME280;7231;59.370;18.016;2023-02-11T10:40:29;101272.03;;;0.31;91.20
14295;BME280;7231;59.370;18.016;2023-02-11T10:43:02;101273.81;;;0.32;91.71
14295;BME280;7231;59.370;18.016;2023-02-11T10:45:33;101278.31;;;0.35;91.00
14295;BME280;7231;59.370;18.016;2023-02-11T10:48:04;101208.53;;;-0.02;91.22
14295;BME280;7231;59.370;18.016;2023-02-11T10:50:34;101283.94;;;0.41;91.52
14295;BME280;7231;59.370;18.016;2023-02-11T10:53:11;101253.72;;;0.28;91.47
14295;BME280;7231;59.370;18.016;2023-02-11T10:55:48;101277.19;;;0.43;91.22
14295;BME280;7231;59.370;18.016;2023-02-11T10:58:25;101311.56;;;0.65;90.84
14295;BME280;7231;59.370;18.016;2023-02-11T11:00:54;101305.19;;;0.72;91.01
14295;BME280;7231;59.370;18.016;2023-02-11T11:03:24;101292.69;;;0.54;90.67
14295;BME280;7231;59.370;18.016;2023-02-11T11:05:54;101327.75;;;0.74;90.96
14295;BME280;7231;59.370;18.016;2023-02-11T11:08:37;101316.50;;;0.74;90.32
14295;BME280;7231;59.370;18.016;2023-02-11T11:11:07;101339.19;;;0.78;90.59
14295;BME280;7231;59.370;18.016;2023-02-11T11:13:38;101350.72;;;0.71;90.25
14295;BME280;7231;59.370;18.016;2023-02-11T11:16:19;101353.09;;;0.68;89.98
14295;BME280;7231;59.370;18.016;2023-02-11T11:18:48;101358.91;;;0.65;89.98
14295;BME280;7231;59.370;18.016;2023-02-11T11:21:19;101375.19;;;0.64;89.70
14295;BME280;7231;59.370;18.016;2023-02-11T11:23:51;101361.91;;;0.48;89.70
14295;BME280;7231;59.370;18.016;2023-02-11T11:26:22;101330.75;;;0.23;89.09
14295;BME280;7231;59.370;18.016;2023-02-11T11:28:57;101399.06;;;0.62;88.89
14295;BME280;7231;59.370;18.016;2023-02-11T11:31:29;101414.78;;;0.65;89.52
14295;BME280;7231;59.370;18.016;2023-02-11T11:33:59;101414.78;;;0.65;88.94
14295;BME280;7231;59.370;18.016;2023-02-11T11:36:34;101423.13;;;0.73;88.86
14295;BME280;7231;59.370;18.016;2023-02-11T11:39:16;101420.84;;;0.65;88.01
14295;BME280;7231;59.370;18.016;2023-02-11T11:41:51;101435.31;;;0.63;87.95
14295;BME280;7231;59.370;18.016;2023-02-11T11:44:26;101449.56;;;0.58;87.86
14295;BME280;7231;59.370;18.016;2023-02-11T11:47:19;101461.00;;;0.62;88.34
14295;BME280;7231;59.370;18.016;2023-02-11T11:50:01;101461.78;;;0.61;87.87
14295;BME280;7231;59.370;18.016;2023-02-11T11:52:36;101479.19;;;0.63;87.62
14295;BME280;7231;59.370;18.016;2023-02-11T11:55:13;101489.75;;;0.67;87.67
14295;BME280;7231;59.370;18.016;2023-02-11T11:57:44;101493.59;;;0.72;88.16
14295;BME280;7231;59.370;18.016;2023-02-11T12:00:18;101500.56;;;0.73;87.30
14295;BME280;7231;59.370;18.016;2023-02-11T12:03:16;101506.84;;;0.76;87.60
14295;BME280;7231;59.370;18.016;2023-02-11T12:05:58;101515.06;;;0.82;87.91
14295;BME280;7231;59.370;18.016;2023-02-11T12:08:35;101540.56;;;0.89;87.15
14295;BME280;7231;59.370;18.016;2023-02-11T12:11:11;101532.84;;;0.89;87.00
14295;BME280;7231;59.370;18.016;2023-02-11T12:13:52;101547.78;;;0.93;87.47
14295;BME280;7231;59.370;18.016;2023-02-11T12:16:34;101547.91;;;0.95;87.40
14295;BME280;7231;59.370;18.016;2023-02-11T12:19:22;101565.13;;;1.06;87.25
14295;BME280;7231;59.370;18.016;2023-02-11T12:22:04;101573.78;;;1.07;86.88
14295;BME280;7231;59.370;18.016;2023-02-11T12:25:04;101584.09;;;1.07;86.82
14295;BME280;7231;59.370;18.016;2023-02-11T12:27:43;101561.03;;;0.98;86.83
14295;BME280;7231;59.370;18.016;2023-02-11T12:30:26;101571.19;;;1.07;86.57
14295;BME280;7231;59.370;18.016;2023-02-11T12:33:03;101594.16;;;1.25;86.48
14295;BME280;7231;59.370;18.016;2023-02-11T12:35:45;101593.75;;;1.31;86.32
14295;BME280;7231;59.370;18.016;2023-02-11T12:38:32;101602.19;;;1.40;86.16
14295;BME280;7231;59.370;18.016;2023-02-11T12:41:16;101605.78;;;1.42;85.83
14295;BME280;7231;59.370;18.016;2023-02-11T12:44:16;101591.44;;;1.46;85.50
14295;BME280;7231;59.370;18.016;2023-02-11T12:46:49;101590.78;;;1.60;85.15
14295;BME280;7231;59.370;18.016;2023-02-11T12:49:39;101610.41;;;1.91;85.09
14295;BME280;7231;59.370;18.016;2023-02-11T12:52:22;101614.34;;;2.10;84.79
14295;BME280;7231;59.370;18.016;2023-02-11T12:54:57;101621.44;;;2.36;83.20
14295;BME280;7231;59.370;18.016;2023-02-11T12:57:30;101628.31;;;2.47;83.15
14295;BME280;7231;59.370;18.016;2023-02-11T13:00:02;101631.34;;;2.89;82.90
14295;BME280;7231;59.370;18.016;2023-02-11T13:02:38;101656.66;;;3.42;80.70
14295;BME280;7231;59.370;18.016;2023-02-11T13:05:20;101666.03;;;3.40;79.08
14295;BME280;7231;59.370;18.016;2023-02-11T13:07:52;101661.31;;;2.98;79.10
14295;BME280;7231;59.370;18.016;2023-02-11T13:10:25;101672.09;;;3.04;79.31
14295;BME280;7231;59.370;18.016;2023-02-11T13:12:55;101677.31;;;2.92;78.74
14295;BME280;7231;59.370;18.016;2023-02-11T13:15:42;101686.19;;;2.96;79.14
14295;BME280;7231;59.370;18.016;2023-02-11T13:18:26;101684.00;;;3.25;78.64
14295;BME280;7231;59.370;18.016;2023-02-11T13:21:07;101691.75;;;3.62;77.78
14295;BME280;7231;59.370;18.016;2023-02-11T13:23:45;101690.63;;;3.83;76.45
14295;BME280;7231;59.370;18.016;2023-02-11T13:26:20;101678.50;;;3.70;75.91
14295;BME280;7231;59.370;18.016;2023-02-11T13:28:53;101705.19;;;3.81;75.61
14295;BME280;7231;59.370;18.016;2023-02-11T13:31:24;101706.97;;;3.82;74.63